createdAt,value
2017-07-18T00:02:16.489Z,16.62
2017-07-18T00:04:45.947Z,16.63
2017-07-18T00:07:15.389Z,16.56
2017-07-18T00:09:44.838Z,16.57
2017-07-18T00:12:14.289Z,16.53
2017-07-18T00:14:43.718Z,16.48
2017-07-18T00:17:13.152Z,16.43
2017-07-18T00:19:42.600Z,16.38
2017-07-18T00:22:12.053Z,16.33
2017-07-18T00:24:41.494Z,16.29
2017-07-18T00:27:10.959Z,16.27
2017-07-18T00:29:40.396Z,16.24
2017-07-18T00:32:09.849Z,16.20
2017-07-18T00:34:39.310Z,16.17
2017-07-18T00:37:08.762Z,16.14
2017-07-18T00:39:38.214Z,16.11
2017-07-18T00:42:07.665Z,16.11
2017-07-18T00:44:37.125Z,16.07
2017-07-18T00:47:06.861Z,16.05
2017-07-18T00:49:36.581Z,16.02
2017-07-18T00:52:06.036Z,16.00
2017-07-18T00:54:35.476Z,15.98
2017-07-18T00:57:05.212Z,15.97
2017-07-18T00:59:34.945Z,15.95
2017-07-18T01:02:04.401Z,15.92
2017-07-18T01:04:33.871Z,15.89
2017-07-18T01:07:03.301Z,15.90
2017-07-18T01:09:32.773Z,15.90
2017-07-18T01:12:02.216Z,15.89
2017-07-18T01:14:31.670Z,15.90
2017-07-18T01:17:01.112Z,15.91
2017-07-18T01:19:30.564Z,15.87
2017-07-18T01:22:00.287Z,15.84
2017-07-18T01:24:30.023Z,15.79
2017-07-18T01:26:59.459Z,15.76
2017-07-18T01:29:29.180Z,15.72
2017-07-18T01:31:58.909Z,15.70
2017-07-18T01:34:28.645Z,15.66
2017-07-18T01:36:58.381Z,15.62
2017-07-18T01:39:28.141Z,15.62
2017-07-18T01:41:57.895Z,15.59
2017-07-18T01:44:27.645Z,15.55
2017-07-18T01:46:57.371Z,15.55
2017-07-18T01:49:27.126Z,15.51
2017-07-18T01:51:56.570Z,15.49
2017-07-18T01:54:26.307Z,15.49
2017-07-18T01:56:56.034Z,15.48
2017-07-18T01:59:25.749Z,15.49
2017-07-18T02:01:55.133Z,15.49
2017-07-18T02:04:24.866Z,15.48
2017-07-18T02:06:54.255Z,15.47
2017-07-18T02:09:23.982Z,15.43
2017-07-18T02:11:53.719Z,15.39
2017-07-18T02:14:23.459Z,15.37
2017-07-18T02:16:53.198Z,15.33
2017-07-18T02:19:22.931Z,15.29
2017-07-18T02:21:52.653Z,15.27
2017-07-18T02:24:22.392Z,15.25
2017-07-18T02:26:52.126Z,15.25
2017-07-18T02:29:21.848Z,15.24
2017-07-18T02:31:51.597Z,15.21
2017-07-18T02:34:21.335Z,15.17
2017-07-18T02:36:51.113Z,15.14
2017-07-18T02:39:20.954Z,15.12
2017-07-18T02:41:50.684Z,15.10
2017-07-18T02:44:20.422Z,15.14
2017-07-18T02:46:50.170Z,15.17
2017-07-18T02:49:19.929Z,15.20
2017-07-18T02:51:49.653Z,15.24
2017-07-18T02:54:19.395Z,15.23
2017-07-18T02:56:49.129Z,15.21
2017-07-18T02:59:18.875Z,15.20
2017-07-18T03:01:48.601Z,15.17
2017-07-18T03:04:18.322Z,15.15
2017-07-18T03:06:48.049Z,15.11
2017-07-18T03:09:17.766Z,15.07
2017-07-18T03:11:47.544Z,15.03
2017-07-18T03:14:17.269Z,15.01
2017-07-18T03:16:46.999Z,14.98
2017-07-18T03:19:16.724Z,14.95
2017-07-18T03:21:46.474Z,14.93
2017-07-18T03:24:27.287Z,14.93
2017-07-18T03:26:56.875Z,14.93
2017-07-18T03:29:26.593Z,14.92
2017-07-18T03:31:56.324Z,14.92
2017-07-18T03:34:26.057Z,14.92
2017-07-18T03:36:55.794Z,14.94
2017-07-18T03:39:25.546Z,14.97
2017-07-18T03:41:55.270Z,14.98
2017-07-18T03:44:25.030Z,14.98
2017-07-18T03:46:54.757Z,14.98
2017-07-18T03:49:24.487Z,14.97
2017-07-18T03:51:54.244Z,14.96
2017-07-18T03:54:23.981Z,14.97
2017-07-18T03:56:53.732Z,14.99
2017-07-18T03:59:23.469Z,15.03
2017-07-18T04:01:53.194Z,15.05
2017-07-18T04:04:22.936Z,15.09
2017-07-18T04:06:52.754Z,15.11
2017-07-18T04:09:22.499Z,15.14
2017-07-18T04:11:52.255Z,15.17
2017-07-18T04:14:21.975Z,15.23
2017-07-18T04:16:51.699Z,15.26
2017-07-18T04:19:21.521Z,15.31
2017-07-18T04:21:51.263Z,15.36
2017-07-18T04:24:20.990Z,15.42
2017-07-18T04:26:50.733Z,15.49
2017-07-18T04:29:20.503Z,15.54
2017-07-18T04:31:50.219Z,15.60
2017-07-18T04:34:20.080Z,15.68
2017-07-18T04:36:49.800Z,15.76
2017-07-18T04:39:19.532Z,15.86
2017-07-18T04:41:49.263Z,15.97
2017-07-18T04:44:19.021Z,16.07
2017-07-18T04:46:48.749Z,16.19
2017-07-18T04:49:18.485Z,16.32
2017-07-18T04:51:48.224Z,16.45
2017-07-18T04:54:17.981Z,16.58
2017-07-18T04:56:47.426Z,16.71
2017-07-18T04:59:17.173Z,16.85
2017-07-18T05:01:46.618Z,16.98
2017-07-18T05:04:16.083Z,17.13
2017-07-18T05:06:45.537Z,17.26
2017-07-18T05:09:14.992Z,17.39
2017-07-18T05:11:44.444Z,17.52
2017-07-18T05:14:13.903Z,17.65
2017-07-18T05:16:43.358Z,17.77
2017-07-18T05:19:12.808Z,17.88
2017-07-18T05:21:42.261Z,18.01
2017-07-18T05:24:11.714Z,18.15
2017-07-18T05:26:41.150Z,18.28
2017-07-18T05:29:10.616Z,18.41
2017-07-18T05:31:40.062Z,18.53
2017-07-18T05:34:09.515Z,18.64
2017-07-18T05:36:38.968Z,18.79
2017-07-18T05:39:08.422Z,18.91
2017-07-18T05:41:37.876Z,19.04
2017-07-18T05:44:07.334Z,19.17
2017-07-18T05:46:36.777Z,19.28
2017-07-18T05:49:06.233Z,19.42
2017-07-18T05:51:35.684Z,19.51
2017-07-18T05:54:05.130Z,19.63
2017-07-18T05:56:34.588Z,19.74
2017-07-18T05:59:04.043Z,19.83
2017-07-18T06:01:33.520Z,19.94
2017-07-18T06:04:02.958Z,20.05
2017-07-18T06:06:32.418Z,20.14
2017-07-18T06:09:01.876Z,20.23
2017-07-18T06:11:31.385Z,20.34
2017-07-18T06:14:00.861Z,20.44
2017-07-18T06:16:30.334Z,20.53
2017-07-18T06:18:59.802Z,20.64
2017-07-18T06:21:29.258Z,20.74
2017-07-18T06:23:58.720Z,20.85
2017-07-18T06:26:28.164Z,20.96
2017-07-18T06:28:57.633Z,21.08
2017-07-18T06:31:27.110Z,21.18
2017-07-18T06:33:56.570Z,21.30
2017-07-18T06:36:26.029Z,21.39
2017-07-18T06:38:57.121Z,21.47
2017-07-18T06:41:26.581Z,21.52
2017-07-18T06:43:56.091Z,21.57
2017-07-18T06:46:25.548Z,21.65
2017-07-18T06:48:55.015Z,21.77
2017-07-18T06:51:24.457Z,21.87
2017-07-18T06:53:53.940Z,22.00
2017-07-18T06:56:23.411Z,22.10
2017-07-18T06:58:52.861Z,22.17
2017-07-18T07:01:22.300Z,22.22
2017-07-18T07:03:51.760Z,22.40
2017-07-18T07:06:21.381Z,22.45
2017-07-18T07:08:51.505Z,22.60
2017-07-18T07:11:20.961Z,22.67
2017-07-18T07:13:50.307Z,22.81
2017-07-18T07:16:19.761Z,22.87
2017-07-18T07:18:49.472Z,22.98
2017-07-18T07:21:18.976Z,23.07
2017-07-18T07:23:48.428Z,23.18
2017-07-18T07:26:17.871Z,23.39
2017-07-18T07:28:47.336Z,23.56
2017-07-18T07:31:16.779Z,23.72
2017-07-18T07:33:46.234Z,23.83
2017-07-18T07:36:15.686Z,23.97
2017-07-18T07:38:45.149Z,24.08
2017-07-18T07:41:14.632Z,24.17
2017-07-18T07:43:44.068Z,24.27
2017-07-18T07:46:13.514Z,24.41
2017-07-18T07:48:42.954Z,24.53
2017-07-18T07:51:12.438Z,24.61
2017-07-18T07:53:41.873Z,24.68
2017-07-18T07:56:11.328Z,24.83
2017-07-18T07:58:41.478Z,24.84
2017-07-18T08:01:10.911Z,24.92
2017-07-18T08:03:40.353Z,24.94
2017-07-18T08:06:09.812Z,25.06
2017-07-18T08:08:39.253Z,25.01
2017-07-18T08:11:08.692Z,25.12
2017-07-18T08:13:38.161Z,25.16
2017-07-18T08:16:07.606Z,25.27
2017-07-18T08:18:37.057Z,25.36
2017-07-18T08:21:06.493Z,25.42
2017-07-18T08:23:35.945Z,25.50
2017-07-18T08:26:05.396Z,25.64
2017-07-18T08:28:34.849Z,25.73
2017-07-18T08:31:04.308Z,25.88
2017-07-18T08:33:36.655Z,25.97
2017-07-18T08:36:10.842Z,26.07
2017-07-18T08:38:41.240Z,26.19
2017-07-18T08:41:12.929Z,26.31
2017-07-18T08:43:44.528Z,26.28
2017-07-18T08:46:15.103Z,26.31
2017-07-18T08:48:46.909Z,26.39
2017-07-18T08:51:18.749Z,26.39
2017-07-18T08:53:51.020Z,26.45
2017-07-18T08:56:22.961Z,26.51
2017-07-18T08:58:54.340Z,26.68
2017-07-18T09:01:26.395Z,26.66
2017-07-18T09:03:58.544Z,26.82
2017-07-18T09:06:31.149Z,26.91
2017-07-18T09:09:04.031Z,27.13
2017-07-18T09:11:37.176Z,27.21
2017-07-18T09:14:10.313Z,27.42
2017-07-18T09:16:43.801Z,27.45
2017-07-18T09:19:17.285Z,27.62
2017-07-18T09:21:50.407Z,27.73
2017-07-18T09:24:25.936Z,27.88
2017-07-18T09:26:59.593Z,28.06
2017-07-18T09:29:32.726Z,28.02
2017-07-18T09:32:05.957Z,28.16
2017-07-18T09:34:38.830Z,28.32
2017-07-18T09:37:11.461Z,28.45
2017-07-18T09:39:44.263Z,28.47
2017-07-18T09:42:15.663Z,28.67
2017-07-18T09:44:45.137Z,28.78
2017-07-18T09:47:14.697Z,28.96
2017-07-18T09:49:44.124Z,29.13
2017-07-18T09:52:13.569Z,29.32
2017-07-18T09:54:43.007Z,29.22
2017-07-18T09:57:12.556Z,29.29
2017-07-18T09:59:42.013Z,29.43
2017-07-18T10:02:11.464Z,29.59
2017-07-18T10:04:40.899Z,29.64
2017-07-18T10:07:10.351Z,29.76
2017-07-18T10:09:39.819Z,29.89
2017-07-18T10:12:09.256Z,29.98
2017-07-18T10:14:38.708Z,30.19
2017-07-18T10:17:08.165Z,30.28
2017-07-18T10:19:37.633Z,30.61
2017-07-18T10:22:07.128Z,30.82
2017-07-18T10:24:36.585Z,30.76
2017-07-18T10:27:06.024Z,30.92
2017-07-18T10:29:36.342Z,31.03
2017-07-18T10:32:05.788Z,31.21
2017-07-18T10:34:35.242Z,31.42
2017-07-18T10:37:04.697Z,31.21
2017-07-18T10:39:34.136Z,31.03
2017-07-18T10:42:03.576Z,30.83
2017-07-18T10:44:33.033Z,31.20
2017-07-18T10:47:02.317Z,31.28
2017-07-18T10:49:31.770Z,31.33
2017-07-18T10:52:01.230Z,31.60
2017-07-18T10:54:30.673Z,31.79
2017-07-18T10:57:00.125Z,31.88
2017-07-18T10:59:29.581Z,32.04
2017-07-18T11:01:59.034Z,31.97
2017-07-18T11:04:28.512Z,31.85
2017-07-18T11:06:57.979Z,32.05
2017-07-18T11:09:27.404Z,31.89
2017-07-18T11:11:56.918Z,31.98
2017-07-18T11:14:26.358Z,32.24
2017-07-18T11:16:55.797Z,32.43
2017-07-18T11:19:25.237Z,32.65
2017-07-18T11:21:54.711Z,32.73
2017-07-18T11:24:24.126Z,32.80
2017-07-18T11:26:53.600Z,32.81
2017-07-18T11:29:23.056Z,32.58
2017-07-18T11:31:52.545Z,32.47
2017-07-18T11:34:22.136Z,32.60
2017-07-18T11:36:51.673Z,32.62
2017-07-18T11:39:21.131Z,32.72
2017-07-18T11:41:50.570Z,32.75
2017-07-18T11:44:20.009Z,32.86
2017-07-18T11:46:49.464Z,32.91
2017-07-18T11:49:18.937Z,32.85
2017-07-18T11:51:48.390Z,33.00
2017-07-18T11:54:17.836Z,33.13
2017-07-18T11:56:47.296Z,33.22
2017-07-18T11:59:16.743Z,33.35
2017-07-18T12:01:46.194Z,33.20
2017-07-18T12:04:15.653Z,33.02
2017-07-18T12:06:45.101Z,32.84
2017-07-18T12:09:15.494Z,33.11
2017-07-18T12:11:44.957Z,33.13
2017-07-18T12:14:14.412Z,33.07
2017-07-18T12:16:43.852Z,33.28
2017-07-18T12:19:13.116Z,33.04
2017-07-18T12:21:42.560Z,33.15
2017-07-18T12:24:12.005Z,33.28
2017-07-18T12:26:41.436Z,33.43
2017-07-18T12:29:10.991Z,33.69
2017-07-18T12:31:40.441Z,34.09
2017-07-18T12:34:09.887Z,35.41
2017-07-18T12:36:39.348Z,36.67
2017-07-18T12:39:08.809Z,37.52
2017-07-18T12:41:38.498Z,37.74
2017-07-18T12:44:07.945Z,38.76
2017-07-18T12:46:37.538Z,39.27
2017-07-18T12:49:07.059Z,40.06
2017-07-18T12:51:36.588Z,39.94
2017-07-18T12:54:06.047Z,40.64
2017-07-18T12:56:35.489Z,41.61
2017-07-18T12:59:04.922Z,42.23
2017-07-18T13:01:34.362Z,43.12
2017-07-18T13:04:03.812Z,43.74
2017-07-18T13:06:33.261Z,43.23
2017-07-18T13:09:02.713Z,43.71
2017-07-18T13:11:31.997Z,43.16
2017-07-18T13:14:01.441Z,43.10
2017-07-18T13:16:30.885Z,43.22
2017-07-18T13:19:00.328Z,44.26
2017-07-18T13:21:29.773Z,44.61
2017-07-18T13:23:59.217Z,45.30
2017-07-18T13:26:28.673Z,45.77
2017-07-18T13:28:58.108Z,44.80
2017-07-18T13:31:27.580Z,44.69
2017-07-18T13:33:57.033Z,44.50
2017-07-18T13:36:26.485Z,45.76
2017-07-18T13:38:55.925Z,46.00
2017-07-18T13:41:25.377Z,45.96
2017-07-18T13:43:54.836Z,46.27
2017-07-18T13:46:24.286Z,46.67
2017-07-18T13:48:53.582Z,47.05
2017-07-18T13:51:23.021Z,46.61
2017-07-18T13:53:52.482Z,46.09
2017-07-18T13:56:21.933Z,46.88
2017-07-18T13:58:51.374Z,46.48
2017-07-18T14:01:20.833Z,45.72
2017-07-18T14:03:50.273Z,46.21
2017-07-18T14:06:19.867Z,46.81
2017-07-18T14:08:49.310Z,47.15
2017-07-18T14:11:18.747Z,47.34
2017-07-18T14:13:48.192Z,47.70
2017-07-18T14:16:17.632Z,48.51
2017-07-18T14:18:47.097Z,48.42
2017-07-18T14:21:16.549Z,48.63
2017-07-18T14:23:46.034Z,48.42
2017-07-18T14:26:15.482Z,48.43
2017-07-18T14:28:44.920Z,48.68
2017-07-18T14:31:14.360Z,48.35
2017-07-18T14:33:43.826Z,48.90
2017-07-18T14:36:13.255Z,48.29
2017-07-18T14:38:43.564Z,49.14
2017-07-18T14:41:13.113Z,49.44
2017-07-18T14:43:43.234Z,49.54
2017-07-18T14:46:12.694Z,48.49
2017-07-18T14:48:42.122Z,48.54
2017-07-18T14:51:11.558Z,48.23
2017-07-18T14:53:40.997Z,48.71
2017-07-18T14:56:10.432Z,48.92
2017-07-18T14:58:39.881Z,48.43
2017-07-18T15:01:09.335Z,48.72
2017-07-18T15:03:38.788Z,48.79
2017-07-18T15:06:08.241Z,49.25
2017-07-18T15:08:37.681Z,49.59
2017-07-18T15:11:07.140Z,49.53
2017-07-18T15:13:36.737Z,49.24
2017-07-18T15:16:06.186Z,48.66
2017-07-18T15:18:35.629Z,48.87
2017-07-18T15:21:05.078Z,48.99
2017-07-18T15:23:34.526Z,48.50
2017-07-18T15:26:03.968Z,49.14
2017-07-18T15:28:33.409Z,48.93
2017-07-18T15:31:02.864Z,48.63
2017-07-18T15:33:32.321Z,48.32
2017-07-18T15:36:01.780Z,48.11
2017-07-18T15:38:31.225Z,47.99
2017-07-18T15:41:00.661Z,48.04
2017-07-18T15:43:30.890Z,47.84
2017-07-18T15:46:00.335Z,48.22
2017-07-18T15:48:29.790Z,48.49
2017-07-18T15:50:59.243Z,47.79
2017-07-18T15:53:28.681Z,47.82
2017-07-18T15:55:58.129Z,48.66
2017-07-18T15:58:27.617Z,48.23
2017-07-18T16:00:57.118Z,48.30
2017-07-18T16:03:26.692Z,48.46
2017-07-18T16:05:56.132Z,48.16
2017-07-18T16:08:25.584Z,47.99
2017-07-18T16:10:55.018Z,48.02
2017-07-18T16:13:24.473Z,47.99
2017-07-18T16:15:53.939Z,47.72
2017-07-18T16:18:23.428Z,47.99
2017-07-18T16:20:53.516Z,47.83
2017-07-18T16:23:23.194Z,47.58
2017-07-18T16:25:52.729Z,47.45
2017-07-18T16:28:22.169Z,46.79
2017-07-18T16:30:51.610Z,47.10
2017-07-18T16:33:21.095Z,46.82
2017-07-18T16:35:50.544Z,46.25
2017-07-18T16:38:19.989Z,46.68
2017-07-18T16:40:49.441Z,46.29
2017-07-18T16:43:18.925Z,45.59
2017-07-18T16:45:48.362Z,45.94
2017-07-18T16:48:17.820Z,45.90
2017-07-18T16:50:47.289Z,45.78
2017-07-18T16:53:16.737Z,45.91
2017-07-18T16:55:46.207Z,45.64
2017-07-18T16:58:15.661Z,45.41
2017-07-18T17:00:45.140Z,44.99
2017-07-18T17:03:14.590Z,45.12
2017-07-18T17:05:44.112Z,45.03
2017-07-18T17:08:13.572Z,44.51
2017-07-18T17:10:43.019Z,44.37
2017-07-18T17:13:12.489Z,44.70
2017-07-18T17:15:41.924Z,44.64
2017-07-18T17:18:11.371Z,44.69
2017-07-18T17:20:40.818Z,44.73
2017-07-18T17:23:10.260Z,43.87
2017-07-18T17:25:39.710Z,42.77
2017-07-18T17:28:09.165Z,41.43
2017-07-18T17:30:38.689Z,40.83
2017-07-18T17:33:08.273Z,40.59
2017-07-18T17:35:37.732Z,39.65
2017-07-18T17:38:07.191Z,39.08
2017-07-18T17:40:36.632Z,38.40
2017-07-18T17:43:06.082Z,37.70
2017-07-18T17:45:35.546Z,37.07
2017-07-18T17:48:05.002Z,36.21
2017-07-18T17:50:34.458Z,35.49
2017-07-18T17:53:03.949Z,34.75
2017-07-18T17:55:33.420Z,34.24
2017-07-18T17:58:02.852Z,33.69
2017-07-18T18:00:32.330Z,33.34
2017-07-18T18:03:01.777Z,33.05
2017-07-18T18:05:31.310Z,32.82
2017-07-18T18:08:00.742Z,32.56
2017-07-18T18:10:30.185Z,32.25
2017-07-18T18:12:59.628Z,31.99
2017-07-18T18:15:29.077Z,31.75
2017-07-18T18:17:58.526Z,31.53
2017-07-18T18:20:27.987Z,31.19
2017-07-18T18:22:57.432Z,30.96
2017-07-18T18:25:27.837Z,30.64
2017-07-18T18:27:57.278Z,30.35
2017-07-18T18:30:26.736Z,29.88
2017-07-18T18:32:56.170Z,29.65
2017-07-18T18:35:25.656Z,29.28
2017-07-18T18:37:55.122Z,29.10
2017-07-18T18:40:24.586Z,28.83
2017-07-18T18:42:54.174Z,28.57
2017-07-18T18:45:23.680Z,28.36
2017-07-18T18:47:53.127Z,28.14
2017-07-18T18:50:22.619Z,27.83
2017-07-18T18:52:52.068Z,27.55
2017-07-18T18:55:21.561Z,27.45
2017-07-18T18:57:51.183Z,27.28
2017-07-18T19:00:20.656Z,27.12
2017-07-18T19:02:50.124Z,26.97
2017-07-18T19:05:19.618Z,26.79
2017-07-18T19:07:49.123Z,26.64
2017-07-18T19:10:18.633Z,26.40
2017-07-18T19:12:49.010Z,26.23
2017-07-18T19:15:18.507Z,26.10
2017-07-18T19:17:47.966Z,25.95
2017-07-18T19:20:17.480Z,25.76
2017-07-18T19:22:46.920Z,25.61
2017-07-18T19:25:16.457Z,25.52
2017-07-18T19:27:45.916Z,25.50
2017-07-18T19:30:15.414Z,25.49
2017-07-18T19:32:44.862Z,25.42
2017-07-18T19:35:14.415Z,25.37
2017-07-18T19:37:43.872Z,25.28
2017-07-18T19:40:13.370Z,25.15
2017-07-18T19:42:42.810Z,25.06
2017-07-18T19:45:12.325Z,24.95
2017-07-18T19:47:41.845Z,24.86
2017-07-18T19:50:11.419Z,24.73
2017-07-18T19:52:40.930Z,24.64
2017-07-18T19:55:10.422Z,24.54
2017-07-18T19:57:39.878Z,24.43
2017-07-18T20:00:09.377Z,24.36
2017-07-18T20:02:38.819Z,24.28
2017-07-18T20:05:08.338Z,24.17
2017-07-18T20:07:37.765Z,24.12
2017-07-18T20:10:07.312Z,24.09
2017-07-18T20:12:36.754Z,24.04
2017-07-18T20:15:06.265Z,24.01
2017-07-18T20:17:35.724Z,23.97
2017-07-18T20:20:05.238Z,23.93
2017-07-18T20:22:34.716Z,23.90
2017-07-18T20:25:04.204Z,23.87
2017-07-18T20:27:33.650Z,23.84
2017-07-18T20:30:03.155Z,23.81
2017-07-18T20:32:32.597Z,23.77
2017-07-18T20:35:02.158Z,23.75
2017-07-18T20:37:31.609Z,23.74
2017-07-18T20:40:01.075Z,23.75
2017-07-18T20:42:30.618Z,23.75
2017-07-18T20:45:00.093Z,23.75
2017-07-18T20:47:29.552Z,23.76
2017-07-18T20:49:58.989Z,23.81
2017-07-18T20:52:28.484Z,23.78
2017-07-18T20:54:57.936Z,23.75
2017-07-18T20:57:27.402Z,23.73
2017-07-18T20:59:56.839Z,23.73
2017-07-18T21:02:26.277Z,23.74
2017-07-18T21:04:55.738Z,23.70
2017-07-18T21:07:25.201Z,23.69
2017-07-18T21:09:54.658Z,23.66
2017-07-18T21:12:24.112Z,23.63
2017-07-18T21:14:53.606Z,23.62
2017-07-18T21:17:23.137Z,23.58
2017-07-18T21:19:52.742Z,23.55
2017-07-18T21:22:22.181Z,23.55
2017-07-18T21:24:51.633Z,23.56
2017-07-18T21:27:21.103Z,23.53
2017-07-18T21:29:50.579Z,23.49
2017-07-18T21:32:20.011Z,23.47
2017-07-18T21:34:49.675Z,23.45
2017-07-18T21:37:19.134Z,23.40
2017-07-18T21:39:48.660Z,23.37
2017-07-18T21:42:18.229Z,23.29
2017-07-18T21:44:48.424Z,23.21
2017-07-18T21:47:17.883Z,23.12
2017-07-18T21:49:47.622Z,23.07
2017-07-18T21:52:17.147Z,23.02
2017-07-18T21:54:47.124Z,22.96
2017-07-18T21:57:17.072Z,22.84
2017-07-18T21:59:46.672Z,22.71
2017-07-18T22:02:16.195Z,22.63
2017-07-18T22:04:45.629Z,22.58
2017-07-18T22:07:15.157Z,22.55
2017-07-18T22:09:44.673Z,22.53
2017-07-18T22:12:14.275Z,22.50
2017-07-18T22:14:43.859Z,22.44
2017-07-18T22:17:13.418Z,22.39
2017-07-18T22:19:42.932Z,22.32
2017-07-18T22:22:12.454Z,22.27
2017-07-18T22:24:41.996Z,22.22
2017-07-18T22:27:11.487Z,22.20
2017-07-18T22:29:40.953Z,22.18
2017-07-18T22:32:10.394Z,22.21
2017-07-18T22:34:39.851Z,22.21
2017-07-18T22:37:10.279Z,22.21
2017-07-18T22:39:39.718Z,22.21
2017-07-18T22:42:09.170Z,22.18
2017-07-18T22:44:38.629Z,22.12
2017-07-18T22:47:08.077Z,22.09
2017-07-18T22:49:37.352Z,22.07
2017-07-18T22:52:06.804Z,22.05
2017-07-18T22:54:36.256Z,21.99
2017-07-18T22:57:05.718Z,22.02
2017-07-18T22:59:35.183Z,22.05
2017-07-18T23:02:04.640Z,22.00
2017-07-18T23:04:34.067Z,21.95
2017-07-18T23:07:03.521Z,21.92
2017-07-18T23:09:32.962Z,21.90
2017-07-18T23:12:02.405Z,21.81
2017-07-18T23:14:31.850Z,21.73
2017-07-18T23:17:01.317Z,21.75
2017-07-18T23:19:30.777Z,21.72
2017-07-18T23:22:00.213Z,21.66
2017-07-18T23:24:29.694Z,21.64
2017-07-18T23:26:59.833Z,21.63
2017-07-18T23:29:29.274Z,21.62
2017-07-18T23:31:58.719Z,21.56
2017-07-18T23:34:28.168Z,21.55
2017-07-18T23:36:57.608Z,21.51
2017-07-18T23:39:27.045Z,21.52
2017-07-18T23:41:56.541Z,21.58
2017-07-18T23:44:25.981Z,21.53
2017-07-18T23:46:55.425Z,21.48
2017-07-18T23:49:25.577Z,21.52
2017-07-18T23:51:55.038Z,21.44
2017-07-18T23:54:24.468Z,21.35
2017-07-18T23:56:53.916Z,21.34
2017-07-18T23:59:23.369Z,21.27
